sensor_id;sensor_type;location;lat;lon;timestamp;P1;durP1;ratioP1;P2;durP2;ratioP2
18778;SDS011;9518;51.720;14.384;2022-07-19T00:02:06;1999.90;;;999.90;;
18778;SDS011;9518;51.720;14.384;2022-07-19T00:04:33;1999.90;;;999.90;;
18778;SDS011;9518;51.720;14.384;2022-07-19T00:07:00;1999.90;;;999.90;;
18778;SDS011;9518;51.720;14.384;2022-07-19T00:09:28;1999.90;;;999.90;;
18778;SDS011;9518;51.720;14.384;2022-07-19T00:11:58;1999.90;;;999.90;;
18778;SDS011;9518;51.720;14.384;2022-07-19T00:14:25;1999.90;;;999.90;;
18778;SDS011;9518;51.720;14.384;2022-07-19T00:16:54;1999.90;;;999.90;;
18778;SDS011;9518;51.720;14.384;2022-07-19T00:19:21;1999.90;;;999.90;;
18778;SDS011;9518;51.720;14.384;2022-07-19T00:21:48;1999.90;;;999.90;;
18778;SDS011;9518;51.720;14.384;2022-07-19T00:24:15;1999.90;;;999.90;;
18778;SDS011;9518;51.720;14.384;2022-07-19T00:26:42;1999.90;;;999.90;;
18778;SDS011;9518;51.720;14.384;2022-07-19T00:29:12;1999.90;;;999.90;;
18778;SDS011;9518;51.720;14.384;2022-07-19T00:31:39;1999.90;;;999.90;;
18778;SDS011;9518;51.720;14.384;2022-07-19T00:34:07;1999.90;;;999.90;;
18778;SDS011;9518;51.720;14.384;2022-07-19T00:36:34;1999.90;;;999.90;;
18778;SDS011;9518;51.720;14.384;2022-07-19T00:39:02;1999.90;;;999.90;;
18778;SDS011;9518;51.720;14.384;2022-07-19T00:41:29;1999.90;;;999.90;;
18778;SDS011;9518;51.720;14.384;2022-07-19T00:43:56;1999.90;;;999.90;;
18778;SDS011;9518;51.720;14.384;2022-07-19T00:46:24;1999.90;;;999.90;;
18778;SDS011;9518;51.720;14.384;2022-07-19T00:48:51;1999.90;;;999.90;;
18778;SDS011;9518;51.720;14.384;2022-07-19T00:51:20;1999.90;;;999.90;;
18778;SDS011;9518;51.720;14.384;2022-07-19T00:53:46;1999.90;;;999.90;;
18778;SDS011;9518;51.720;14.384;2022-07-19T00:56:14;1999.90;;;999.90;;
18778;SDS011;9518;51.720;14.384;2022-07-19T00:58:43;1999.90;;;999.90;;
18778;SDS011;9518;51.720;14.384;2022-07-19T01:01:10;1999.90;;;999.90;;
18778;SDS011;9518;51.720;14.384;2022-07-19T01:03:37;1999.90;;;999.90;;
18778;SDS011;9518;51.720;14.384;2022-07-19T01:06:06;1999.90;;;999.90;;
18778;SDS011;9518;51.720;14.384;2022-07-19T01:08:36;1999.90;;;999.90;;
18778;SDS011;9518;51.720;14.384;2022-07-19T01:11:03;1999.90;;;999.90;;
18778;SDS011;9518;51.720;14.384;2022-07-19T01:13:32;1999.90;;;999.90;;
18778;SDS011;9518;51.720;14.384;2022-07-19T01:16:00;1999.90;;;999.90;;
18778;SDS011;9518;51.720;14.384;2022-07-19T01:18:27;1999.90;;;999.90;;
18778;SDS011;9518;51.720;14.384;2022-07-19T01:20:54;1999.90;;;999.90;;
18778;SDS011;9518;51.720;14.384;2022-07-19T01:23:23;1999.90;;;999.90;;
18778;SDS011;9518;51.720;14.384;2022-07-19T01:25:51;1999.90;;;999.90;;
18778;SDS011;9518;51.720;14.384;2022-07-19T01:28:18;1999.90;;;999.90;;
18778;SDS011;9518;51.720;14.384;2022-07-19T01:30:45;1999.90;;;999.90;;
18778;SDS011;9518;51.720;14.384;2022-07-19T01:33:12;1999.90;;;999.90;;
18778;SDS011;9518;51.720;14.384;2022-07-19T01:35:38;1999.90;;;999.90;;
18778;SDS011;9518;51.720;14.384;2022-07-19T01:38:05;1999.90;;;999.90;;
18778;SDS011;9518;51.720;14.384;2022-07-19T01:40:34;1999.90;;;999.90;;
18778;SDS011;9518;51.720;14.384;2022-07-19T01:43:01;1999.90;;;999.90;;
18778;SDS011;9518;51.720;14.384;2022-07-19T01:45:28;1999.90;;;999.90;;
18778;SDS011;9518;51.720;14.384;2022-07-19T01:47:55;1999.90;;;999.90;;
18778;SDS011;9518;51.720;14.384;2022-07-19T01:50:21;1999.90;;;999.90;;
18778;SDS011;9518;51.720;14.384;2022-07-19T01:52:57;1999.90;;;999.90;;
18778;SDS011;9518;51.720;14.384;2022-07-19T01:55:25;1999.90;;;999.90;;
18778;SDS011;9518;51.720;14.384;2022-07-19T01:57:53;1999.90;;;999.90;;
18778;SDS011;9518;51.720;14.384;2022-07-19T02:00:20;1999.90;;;999.90;;
18778;SDS011;9518;51.720;14.384;2022-07-19T02:02:47;1999.90;;;999.90;;
18778;SDS011;9518;51.720;14.384;2022-07-19T02:05:14;1999.90;;;999.90;;
18778;SDS011;9518;51.720;14.384;2022-07-19T02:07:41;1999.90;;;999.90;;
18778;SDS011;9518;51.720;14.384;2022-07-19T02:10:08;1999.90;;;999.90;;
18778;SDS011;9518;51.720;14.384;2022-07-19T02:12:35;1999.90;;;999.90;;
18778;SDS011;9518;51.720;14.384;2022-07-19T02:15:04;1999.90;;;999.90;;
18778;SDS011;9518;51.720;14.384;2022-07-19T02:17:32;1999.90;;;999.90;;
18778;SDS011;9518;51.720;14.384;2022-07-19T02:19:59;1999.90;;;999.90;;
18778;SDS011;9518;51.720;14.384;2022-07-19T02:22:26;1999.90;;;999.90;;
18778;SDS011;9518;51.720;14.384;2022-07-19T02:24:53;1999.90;;;999.90;;
18778;SDS011;9518;51.720;14.384;2022-07-19T02:27:20;1999.90;;;999.90;;
18778;SDS011;9518;51.720;14.384;2022-07-19T02:29:47;1999.90;;;999.90;;
18778;SDS011;9518;51.720;14.384;2022-07-19T02:32:16;1999.90;;;999.90;;
18778;SDS011;9518;51.720;14.384;2022-07-19T02:34:43;1999.90;;;999.90;;
18778;SDS011;9518;51.720;14.384;2022-07-19T02:37:10;1999.90;;;999.90;;
18778;SDS011;9518;51.720;14.384;2022-07-19T02:39:37;1999.90;;;999.90;;
18778;SDS011;9518;51.720;14.384;2022-07-19T02:42:04;1999.90;;;999.90;;
18778;SDS011;9518;51.720;14.384;2022-07-19T02:44:30;1999.90;;;999.90;;
18778;SDS011;9518;51.720;14.384;2022-07-19T02:46:57;1999.90;;;999.90;;
18778;SDS011;9518;51.720;14.384;2022-07-19T02:49:26;1999.90;;;999.90;;
18778;SDS011;9518;51.720;14.384;2022-07-19T02:51:52;1999.90;;;999.90;;
18778;SDS011;9518;51.720;14.384;2022-07-19T02:54:19;1999.90;;;999.90;;
18778;SDS011;9518;51.720;14.384;2022-07-19T02:56:46;1999.90;;;999.90;;
18778;SDS011;9518;51.720;14.384;2022-07-19T02:59:14;1999.90;;;999.90;;
18778;SDS011;9518;51.720;14.384;2022-07-19T03:01:41;1999.90;;;999.90;;
18778;SDS011;9518;51.720;14.384;2022-07-19T03:04:07;1999.90;;;999.90;;
18778;SDS011;9518;51.720;14.384;2022-07-19T03:06:36;1999.90;;;999.90;;
18778;SDS011;9518;51.720;14.384;2022-07-19T03:09:03;1999.90;;;999.90;;
18778;SDS011;9518;51.720;14.384;2022-07-19T03:11:30;1999.90;;;999.90;;
18778;SDS011;9518;51.720;14.384;2022-07-19T03:13:56;1999.90;;;999.90;;
18778;SDS011;9518;51.720;14.384;2022-07-19T03:16:23;1999.90;;;999.90;;
18778;SDS011;9518;51.720;14.384;2022-07-19T03:18:50;1999.90;;;999.90;;
18778;SDS011;9518;51.720;14.384;2022-07-19T03:21:17;1999.90;;;999.90;;
18778;SDS011;9518;51.720;14.384;2022-07-19T03:23:45;1999.90;;;999.90;;
18778;SDS011;9518;51.720;14.384;2022-07-19T03:26:12;1999.90;;;999.90;;
18778;SDS011;9518;51.720;14.384;2022-07-19T03:28:39;1999.90;;;999.90;;
18778;SDS011;9518;51.720;14.384;2022-07-19T03:31:06;1999.90;;;999.90;;
18778;SDS011;9518;51.720;14.384;2022-07-19T03:33:33;1999.90;;;999.90;;
18778;SDS011;9518;51.720;14.384;2022-07-19T03:36:00;1999.90;;;999.90;;
18778;SDS011;9518;51.720;14.384;2022-07-19T03:38:27;1999.90;;;999.90;;
18778;SDS011;9518;51.720;14.384;2022-07-19T03:40:55;1999.90;;;999.90;;
18778;SDS011;9518;51.720;14.384;2022-07-19T03:43:22;1999.90;;;999.90;;
18778;SDS011;9518;51.720;14.384;2022-07-19T03:45:49;1999.90;;;999.90;;
18778;SDS011;9518;51.720;14.384;2022-07-19T03:48:16;1999.90;;;999.90;;
18778;SDS011;9518;51.720;14.384;2022-07-19T03:50:44;1999.90;;;999.90;;
18778;SDS011;9518;51.720;14.384;2022-07-19T03:53:11;1999.90;;;999.90;;
18778;SDS011;9518;51.720;14.384;2022-07-19T03:55:38;1999.90;;;999.90;;
18778;SDS011;9518;51.720;14.384;2022-07-19T03:58:07;1999.90;;;999.90;;
18778;SDS011;9518;51.720;14.384;2022-07-19T04:00:33;1999.90;;;999.90;;
18778;SDS011;9518;51.720;14.384;2022-07-19T04:03:00;1999.90;;;999.90;;
18778;SDS011;9518;51.720;14.384;2022-07-19T04:05:27;1999.90;;;999.90;;
18778;SDS011;9518;51.720;14.384;2022-07-19T04:07:54;1999.90;;;999.90;;
18778;SDS011;9518;51.720;14.384;2022-07-19T04:10:21;1999.90;;;999.90;;
18778;SDS011;9518;51.720;14.384;2022-07-19T04:12:48;1999.90;;;999.90;;
18778;SDS011;9518;51.720;14.384;2022-07-19T04:15:17;1999.90;;;999.90;;
18778;SDS011;9518;51.720;14.384;2022-07-19T04:17:44;1999.90;;;999.90;;
18778;SDS011;9518;51.720;14.384;2022-07-19T04:20:11;1999.90;;;999.90;;
18778;SDS011;9518;51.720;14.384;2022-07-19T04:22:39;1999.90;;;999.90;;
18778;SDS011;9518;51.720;14.384;2022-07-19T04:25:09;1999.90;;;999.90;;
18778;SDS011;9518;51.720;14.384;2022-07-19T04:27:36;1999.90;;;999.90;;
18778;SDS011;9518;51.720;14.384;2022-07-19T04:30:04;1999.90;;;999.90;;
18778;SDS011;9518;51.720;14.384;2022-07-19T04:32:33;1999.90;;;999.90;;
18778;SDS011;9518;51.720;14.384;2022-07-19T04:35:00;1999.90;;;999.90;;
18778;SDS011;9518;51.720;14.384;2022-07-19T04:37:27;1999.90;;;999.90;;
18778;SDS011;9518;51.720;14.384;2022-07-19T04:39:54;1999.90;;;999.90;;
18778;SDS011;9518;51.720;14.384;2022-07-19T04:42:21;1999.90;;;999.90;;
18778;SDS011;9518;51.720;14.384;2022-07-19T04:44:48;1999.90;;;999.90;;
18778;SDS011;9518;51.720;14.384;2022-07-19T04:47:15;1999.90;;;999.90;;
18778;SDS011;9518;51.720;14.384;2022-07-19T04:49:43;1999.90;;;999.90;;
18778;SDS011;9518;51.720;14.384;2022-07-19T04:52:10;1999.90;;;999.90;;
18778;SDS011;9518;51.720;14.384;2022-07-19T04:54:37;1999.90;;;999.90;;
18778;SDS011;9518;51.720;14.384;2022-07-19T04:57:04;1999.90;;;999.90;;
18778;SDS011;9518;51.720;14.384;2022-07-19T04:59:31;1999.90;;;999.90;;
18778;SDS011;9518;51.720;14.384;2022-07-19T05:01:58;1999.90;;;999.90;;
18778;SDS011;9518;51.720;14.384;2022-07-19T05:04:25;1999.90;;;999.90;;
18778;SDS011;9518;51.720;14.384;2022-07-19T05:06:53;1999.90;;;999.90;;
18778;SDS011;9518;51.720;14.384;2022-07-19T05:09:22;1999.90;;;999.90;;
18778;SDS011;9518;51.720;14.384;2022-07-19T05:11:50;1999.90;;;999.90;;
18778;SDS011;9518;51.720;14.384;2022-07-19T05:14:17;1999.90;;;999.90;;
18778;SDS011;9518;51.720;14.384;2022-07-19T05:16:46;1999.90;;;999.90;;
18778;SDS011;9518;51.720;14.384;2022-07-19T05:19:14;1999.90;;;999.90;;
18778;SDS011;9518;51.720;14.384;2022-07-19T05:21:41;1999.90;;;999.90;;
18778;SDS011;9518;51.720;14.384;2022-07-19T05:24:10;1999.90;;;999.90;;
18778;SDS011;9518;51.720;14.384;2022-07-19T05:26:40;1999.90;;;999.90;;
18778;SDS011;9518;51.720;14.384;2022-07-19T05:29:07;1999.90;;;999.90;;
18778;SDS011;9518;51.720;14.384;2022-07-19T05:31:34;1999.90;;;999.90;;
18778;SDS011;9518;51.720;14.384;2022-07-19T05:34:01;1999.90;;;999.90;;
18778;SDS011;9518;51.720;14.384;2022-07-19T05:36:28;1999.90;;;999.90;;
18778;SDS011;9518;51.720;14.384;2022-07-19T05:38:55;1999.90;;;999.90;;
18778;SDS011;9518;51.720;14.384;2022-07-19T05:41:23;1999.90;;;999.90;;
18778;SDS011;9518;51.720;14.384;2022-07-19T05:43:50;1999.90;;;999.90;;
18778;SDS011;9518;51.720;14.384;2022-07-19T05:46:18;1999.90;;;999.90;;
18778;SDS011;9518;51.720;14.384;2022-07-19T05:48:45;1999.90;;;999.90;;
18778;SDS011;9518;51.720;14.384;2022-07-19T05:51:13;398.37;;;377.60;;
18778;SDS011;9518;51.720;14.384;2022-07-19T05:53:40;1999.90;;;999.90;;
18778;SDS011;9518;51.720;14.384;2022-07-19T05:56:07;503.02;;;477.98;;
18778;SDS011;9518;51.720;14.384;2022-07-19T05:58:36;930.80;;;658.00;;
18778;SDS011;9518;51.720;14.384;2022-07-19T06:01:04;549.80;;;521.40;;
18778;SDS011;9518;51.720;14.384;2022-07-19T06:03:48;445.33;;;423.65;;
18778;SDS011;9518;51.720;14.384;2022-07-19T06:06:17;434.98;;;414.25;;
18778;SDS011;9518;51.720;14.384;2022-07-19T06:08:45;350.08;;;333.73;;
18778;SDS011;9518;51.720;14.384;2022-07-19T06:11:12;391.50;;;372.73;;
18778;SDS011;9518;51.720;14.384;2022-07-19T06:13:41;355.88;;;339.25;;
18778;SDS011;9518;51.720;14.384;2022-07-19T06:16:09;229.57;;;219.05;;
18778;SDS011;9518;51.720;14.384;2022-07-19T06:18:37;184.82;;;175.70;;
18778;SDS011;9518;51.720;14.384;2022-07-19T06:21:05;146.90;;;139.95;;
18778;SDS011;9518;51.720;14.384;2022-07-19T06:23:34;104.65;;;99.13;;
18778;SDS011;9518;51.720;14.384;2022-07-19T06:26:01;127.78;;;121.63;;
18778;SDS011;9518;51.720;14.384;2022-07-19T06:28:28;66.18;;;62.42;;
18778;SDS011;9518;51.720;14.384;2022-07-19T06:30:57;61.58;;;57.70;;
18778;SDS011;9518;51.720;14.384;2022-07-19T06:33:24;74.90;;;70.57;;
18778;SDS011;9518;51.720;14.384;2022-07-19T06:35:51;83.68;;;79.65;;
18778;SDS011;9518;51.720;14.384;2022-07-19T06:38:18;72.22;;;68.75;;
18778;SDS011;9518;51.720;14.384;2022-07-19T06:40:45;82.72;;;78.85;;
18778;SDS011;9518;51.720;14.384;2022-07-19T06:43:12;77.80;;;73.95;;
18778;SDS011;9518;51.720;14.384;2022-07-19T06:45:39;137.38;;;130.88;;
18778;SDS011;9518;51.720;14.384;2022-07-19T06:48:07;273.08;;;260.05;;
18778;SDS011;9518;51.720;14.384;2022-07-19T06:50:34;198.32;;;188.95;;
18778;SDS011;9518;51.720;14.384;2022-07-19T06:53:01;309.13;;;294.55;;
18778;SDS011;9518;51.720;14.384;2022-07-19T06:55:28;303.90;;;289.40;;
18778;SDS011;9518;51.720;14.384;2022-07-19T06:57:55;496.17;;;470.88;;
18778;SDS011;9518;51.720;14.384;2022-07-19T07:00:22;603.65;;;569.22;;
18778;SDS011;9518;51.720;14.384;2022-07-19T07:02:49;658.45;;;618.78;;
18778;SDS011;9518;51.720;14.384;2022-07-19T07:05:17;1999.90;;;999.90;;
18778;SDS011;9518;51.720;14.384;2022-07-19T07:07:44;1999.90;;;999.90;;
18778;SDS011;9518;51.720;14.384;2022-07-19T07:10:12;1999.90;;;999.90;;
18778;SDS011;9518;51.720;14.384;2022-07-19T07:12:40;1999.90;;;999.90;;
18778;SDS011;9518;51.720;14.384;2022-07-19T07:15:07;1999.90;;;999.90;;
18778;SDS011;9518;51.720;14.384;2022-07-19T07:17:35;1999.90;;;999.90;;
18778;SDS011;9518;51.720;14.384;2022-07-19T07:20:03;1999.90;;;999.90;;
18778;SDS011;9518;51.720;14.384;2022-07-19T07:22:33;1999.90;;;999.90;;
18778;SDS011;9518;51.720;14.384;2022-07-19T07:25:00;1999.90;;;999.90;;
18778;SDS011;9518;51.720;14.384;2022-07-19T07:27:27;1999.90;;;999.90;;
18778;SDS011;9518;51.720;14.384;2022-07-19T07:29:54;1999.90;;;999.90;;
18778;SDS011;9518;51.720;14.384;2022-07-19T07:32:21;1999.90;;;999.90;;
18778;SDS011;9518;51.720;14.384;2022-07-19T07:34:48;1999.90;;;999.90;;
18778;SDS011;9518;51.720;14.384;2022-07-19T07:37:15;1999.90;;;999.90;;
18778;SDS011;9518;51.720;14.384;2022-07-19T07:39:43;1999.90;;;999.90;;
18778;SDS011;9518;51.720;14.384;2022-07-19T07:42:10;1999.90;;;999.90;;
18778;SDS011;9518;51.720;14.384;2022-07-19T07:44:37;1999.90;;;999.90;;
18778;SDS011;9518;51.720;14.384;2022-07-19T07:47:04;1999.90;;;999.90;;
18778;SDS011;9518;51.720;14.384;2022-07-19T07:49:33;1999.90;;;999.90;;
18778;SDS011;9518;51.720;14.384;2022-07-19T07:52:00;1999.90;;;999.90;;
18778;SDS011;9518;51.720;14.384;2022-07-19T07:54:27;1999.90;;;999.90;;
18778;SDS011;9518;51.720;14.384;2022-07-19T07:56:55;1999.90;;;999.90;;
18778;SDS011;9518;51.720;14.384;2022-07-19T07:59:22;1999.90;;;999.90;;
18778;SDS011;9518;51.720;14.384;2022-07-19T08:01:49;1999.90;;;999.90;;
18778;SDS011;9518;51.720;14.384;2022-07-19T08:04:16;1999.90;;;999.90;;
18778;SDS011;9518;51.720;14.384;2022-07-19T08:06:43;1999.90;;;999.90;;
18778;SDS011;9518;51.720;14.384;2022-07-19T08:09:10;1999.90;;;999.90;;
18778;SDS011;9518;51.720;14.384;2022-07-19T08:11:37;1999.90;;;999.90;;
18778;SDS011;9518;51.720;14.384;2022-07-19T08:14:05;1999.90;;;999.90;;
18778;SDS011;9518;51.720;14.384;2022-07-19T08:16:32;1999.90;;;999.90;;
18778;SDS011;9518;51.720;14.384;2022-07-19T08:18:59;1999.90;;;999.90;;
18778;SDS011;9518;51.720;14.384;2022-07-19T08:21:26;1999.90;;;999.90;;
18778;SDS011;9518;51.720;14.384;2022-07-19T08:23:53;1999.90;;;999.90;;
18778;SDS011;9518;51.720;14.384;2022-07-19T08:26:20;1999.90;;;999.90;;
18778;SDS011;9518;51.720;14.384;2022-07-19T08:28:47;1999.90;;;999.90;;
18778;SDS011;9518;51.720;14.384;2022-07-19T08:31:16;1999.90;;;999.90;;
18778;SDS011;9518;51.720;14.384;2022-07-19T08:33:43;1999.90;;;999.90;;
18778;SDS011;9518;51.720;14.384;2022-07-19T08:36:10;1999.90;;;999.90;;
18778;SDS011;9518;51.720;14.384;2022-07-19T08:38:37;1999.90;;;999.90;;
18778;SDS011;9518;51.720;14.384;2022-07-19T08:41:05;1999.90;;;999.90;;
18778;SDS011;9518;51.720;14.384;2022-07-19T08:43:33;1999.90;;;999.90;;
18778;SDS011;9518;51.720;14.384;2022-07-19T08:46:00;1999.90;;;999.90;;
18778;SDS011;9518;51.720;14.384;2022-07-19T08:48:31;1999.90;;;999.90;;
18778;SDS011;9518;51.720;14.384;2022-07-19T08:50:59;1999.90;;;999.90;;
18778;SDS011;9518;51.720;14.384;2022-07-19T08:53:28;1999.90;;;999.90;;
18778;SDS011;9518;51.720;14.384;2022-07-19T08:55:57;1999.90;;;999.90;;
18778;SDS011;9518;51.720;14.384;2022-07-19T08:58:24;1999.90;;;999.90;;
18778;SDS011;9518;51.720;14.384;2022-07-19T09:00:50;1999.90;;;999.90;;
18778;SDS011;9518;51.720;14.384;2022-07-19T09:03:18;1999.90;;;999.90;;
18778;SDS011;9518;51.720;14.384;2022-07-19T09:05:46;1999.90;;;999.90;;
18778;SDS011;9518;51.720;14.384;2022-07-19T09:08:14;1999.90;;;999.90;;
18778;SDS011;9518;51.720;14.384;2022-07-19T09:10:44;1999.90;;;999.90;;
18778;SDS011;9518;51.720;14.384;2022-07-19T09:13:33;1999.90;;;999.90;;
18778;SDS011;9518;51.720;14.384;2022-07-19T09:16:00;1999.90;;;999.90;;
18778;SDS011;9518;51.720;14.384;2022-07-19T09:18:28;1999.90;;;999.90;;
18778;SDS011;9518;51.720;14.384;2022-07-19T09:20:59;1999.90;;;999.90;;
18778;SDS011;9518;51.720;14.384;2022-07-19T09:23:27;1999.90;;;999.90;;
18778;SDS011;9518;51.720;14.384;2022-07-19T09:25:55;1999.90;;;999.90;;
18778;SDS011;9518;51.720;14.384;2022-07-19T09:28:23;1999.90;;;999.90;;
18778;SDS011;9518;51.720;14.384;2022-07-19T09:30:52;1999.90;;;999.90;;
18778;SDS011;9518;51.720;14.384;2022-07-19T09:33:20;1999.90;;;999.90;;
18778;SDS011;9518;51.720;14.384;2022-07-19T09:35:49;1999.90;;;999.90;;
18778;SDS011;9518;51.720;14.384;2022-07-19T09:38:19;1999.90;;;999.90;;
18778;SDS011;9518;51.720;14.384;2022-07-19T09:40:49;1999.90;;;999.90;;
18778;SDS011;9518;51.720;14.384;2022-07-19T09:43:18;1999.90;;;999.90;;
18778;SDS011;9518;51.720;14.384;2022-07-19T09:45:47;1999.90;;;999.90;;
18778;SDS011;9518;51.720;14.384;2022-07-19T09:48:15;1999.90;;;999.90;;
18778;SDS011;9518;51.720;14.384;2022-07-19T09:50:42;1999.90;;;999.90;;
18778;SDS011;9518;51.720;14.384;2022-07-19T09:53:11;1999.90;;;999.90;;
18778;SDS011;9518;51.720;14.384;2022-07-19T09:55:40;1999.90;;;999.90;;
18778;SDS011;9518;51.720;14.384;2022-07-19T09:58:08;1999.90;;;999.90;;
18778;SDS011;9518;51.720;14.384;2022-07-19T10:00:36;1999.90;;;999.90;;
18778;SDS011;9518;51.720;14.384;2022-07-19T10:03:04;1999.90;;;999.90;;
18778;SDS011;9518;51.720;14.384;2022-07-19T10:05:33;1999.90;;;999.90;;
18778;SDS011;9518;51.720;14.384;2022-07-19T10:08:00;1999.90;;;999.90;;
18778;SDS011;9518;51.720;14.384;2022-07-19T10:10:28;1999.90;;;999.90;;
18778;SDS011;9518;51.720;14.384;2022-07-19T10:12:58;1999.90;;;999.90;;
18778;SDS011;9518;51.720;14.384;2022-07-19T10:15:27;1999.90;;;999.90;;
18778;SDS011;9518;51.720;14.384;2022-07-19T10:18:04;1999.90;;;999.90;;
18778;SDS011;9518;51.720;14.384;2022-07-19T10:20:36;1999.90;;;999.90;;
18778;SDS011;9518;51.720;14.384;2022-07-19T10:23:05;1999.90;;;999.90;;
18778;SDS011;9518;51.720;14.384;2022-07-19T10:25:39;1999.90;;;999.90;;
18778;SDS011;9518;51.720;14.384;2022-07-19T10:28:28;1999.90;;;999.90;;
18778;SDS011;9518;51.720;14.384;2022-07-19T10:30:56;1999.90;;;999.90;;
18778;SDS011;9518;51.720;14.384;2022-07-19T10:33:28;1999.90;;;999.90;;
18778;SDS011;9518;51.720;14.384;2022-07-19T10:35:57;1999.90;;;999.90;;
18778;SDS011;9518;51.720;14.384;2022-07-19T10:44:36;1999.90;;;999.90;;
18778;SDS011;9518;51.720;14.384;2022-07-19T10:50:53;1999.90;;;999.90;;
18778;SDS011;9518;51.720;14.384;2022-07-19T10:56:23;1999.90;;;999.90;;
18778;SDS011;9518;51.720;14.384;2022-07-19T10:58:56;1999.90;;;999.90;;
18778;SDS011;9518;51.720;14.384;2022-07-19T11:01:25;1999.90;;;999.90;;
18778;SDS011;9518;51.720;14.384;2022-07-19T11:03:54;1999.90;;;999.90;;
18778;SDS011;9518;51.720;14.384;2022-07-19T11:06:41;1999.90;;;999.90;;
18778;SDS011;9518;51.720;14.384;2022-07-19T11:09:08;1999.90;;;999.90;;
18778;SDS011;9518;51.720;14.384;2022-07-19T11:11:35;1999.90;;;999.90;;
18778;SDS011;9518;51.720;14.384;2022-07-19T11:14:06;1999.90;;;999.90;;
18778;SDS011;9518;51.720;14.384;2022-07-19T11:16:33;1999.90;;;999.90;;
18778;SDS011;9518;51.720;14.384;2022-07-19T11:19:03;1999.90;;;999.90;;
18778;SDS011;9518;51.720;14.384;2022-07-19T11:21:31;1999.90;;;999.90;;
18778;SDS011;9518;51.720;14.384;2022-07-19T11:24:00;1999.90;;;999.90;;
18778;SDS011;9518;51.720;14.384;2022-07-19T11:26:28;1999.90;;;999.90;;
18778;SDS011;9518;51.720;14.384;2022-07-19T11:29:01;1999.90;;;999.90;;
18778;SDS011;9518;51.720;14.384;2022-07-19T11:31:29;1999.90;;;999.90;;
18778;SDS011;9518;51.720;14.384;2022-07-19T11:33:56;1999.90;;;999.90;;
18778;SDS011;9518;51.720;14.384;2022-07-19T11:36:24;1999.90;;;999.90;;
18778;SDS011;9518;51.720;14.384;2022-07-19T11:38:52;1999.90;;;999.90;;
18778;SDS011;9518;51.720;14.384;2022-07-19T11:41:21;1999.90;;;999.90;;
18778;SDS011;9518;51.720;14.384;2022-07-19T11:43:51;1999.90;;;999.90;;
18778;SDS011;9518;51.720;14.384;2022-07-19T11:46:20;1999.90;;;999.90;;
18778;SDS011;9518;51.720;14.384;2022-07-19T11:48:49;1999.90;;;999.90;;
18778;SDS011;9518;51.720;14.384;2022-07-19T11:51:20;1999.90;;;999.90;;
18778;SDS011;9518;51.720;14.384;2022-07-19T11:53:48;1999.90;;;999.90;;
18778;SDS011;9518;51.720;14.384;2022-07-19T11:56:17;1999.90;;;999.90;;
18778;SDS011;9518;51.720;14.384;2022-07-19T11:58:45;1999.90;;;999.90;;
18778;SDS011;9518;51.720;14.384;2022-07-19T12:01:13;1999.90;;;999.90;;
18778;SDS011;9518;51.720;14.384;2022-07-19T12:03:40;1999.90;;;999.90;;
18778;SDS011;9518;51.720;14.384;2022-07-19T12:06:20;1999.90;;;999.90;;
18778;SDS011;9518;51.720;14.384;2022-07-19T12:09:03;1999.90;;;999.90;;
18778;SDS011;9518;51.720;14.384;2022-07-19T12:11:38;1999.90;;;999.90;;
18778;SDS011;9518;51.720;14.384;2022-07-19T12:14:16;1999.90;;;999.90;;
18778;SDS011;9518;51.720;14.384;2022-07-19T12:16:44;1999.90;;;999.90;;
18778;SDS011;9518;51.720;14.384;2022-07-19T12:19:13;1999.90;;;999.90;;
18778;SDS011;9518;51.720;14.384;2022-07-19T12:21:43;1999.90;;;999.90;;
18778;SDS011;9518;51.720;14.384;2022-07-19T12:24:12;1999.90;;;999.90;;
18778;SDS011;9518;51.720;14.384;2022-07-19T12:26:44;1999.90;;;999.90;;
18778;SDS011;9518;51.720;14.384;2022-07-19T12:29:26;1999.90;;;999.90;;
18778;SDS011;9518;51.720;14.384;2022-07-19T12:31:54;1999.90;;;999.90;;
18778;SDS011;9518;51.720;14.384;2022-07-19T12:34:25;1999.90;;;999.90;;
18778;SDS011;9518;51.720;14.384;2022-07-19T12:36:52;1999.90;;;999.90;;
18778;SDS011;9518;51.720;14.384;2022-07-19T12:39:20;1999.90;;;999.90;;
18778;SDS011;9518;51.720;14.384;2022-07-19T12:44:34;1999.90;;;999.90;;
18778;SDS011;9518;51.720;14.384;2022-07-19T12:47:02;1999.90;;;999.90;;
18778;SDS011;9518;51.720;14.384;2022-07-19T12:49:43;1999.90;;;999.90;;
18778;SDS011;9518;51.720;14.384;2022-07-19T12:52:11;1999.90;;;999.90;;
18778;SDS011;9518;51.720;14.384;2022-07-19T12:54:39;1999.90;;;999.90;;
18778;SDS011;9518;51.720;14.384;2022-07-19T12:57:06;1999.90;;;999.90;;
18778;SDS011;9518;51.720;14.384;2022-07-19T12:59:32;1999.90;;;999.90;;
18778;SDS011;9518;51.720;14.384;2022-07-19T13:02:05;1999.90;;;999.90;;
18778;SDS011;9518;51.720;14.384;2022-07-19T13:04:33;1999.90;;;999.90;;
18778;SDS011;9518;51.720;14.384;2022-07-19T13:07:01;1999.90;;;999.90;;
18778;SDS011;9518;51.720;14.384;2022-07-19T13:09:28;1999.90;;;999.90;;
18778;SDS011;9518;51.720;14.384;2022-07-19T13:11:56;1999.90;;;999.90;;
18778;SDS011;9518;51.720;14.384;2022-07-19T13:14:23;1999.90;;;999.90;;
18778;SDS011;9518;51.720;14.384;2022-07-19T13:16:50;1999.90;;;999.90;;
18778;SDS011;9518;51.720;14.384;2022-07-19T13:19:17;1999.90;;;999.90;;
18778;SDS011;9518;51.720;14.384;2022-07-19T13:21:44;1999.90;;;999.90;;
18778;SDS011;9518;51.720;14.384;2022-07-19T13:24:12;1999.90;;;999.90;;
18778;SDS011;9518;51.720;14.384;2022-07-19T13:26:39;1999.90;;;999.90;;
18778;SDS011;9518;51.720;14.384;2022-07-19T13:29:06;1999.90;;;999.90;;
18778;SDS011;9518;51.720;14.384;2022-07-19T13:31:33;1999.90;;;999.90;;
18778;SDS011;9518;51.720;14.384;2022-07-19T13:34:00;1999.90;;;999.90;;
18778;SDS011;9518;51.720;14.384;2022-07-19T13:36:26;1999.90;;;999.90;;
18778;SDS011;9518;51.720;14.384;2022-07-19T13:38:53;1999.90;;;999.90;;
18778;SDS011;9518;51.720;14.384;2022-07-19T13:41:22;1999.90;;;999.90;;
18778;SDS011;9518;51.720;14.384;2022-07-19T13:43:49;1999.90;;;999.90;;
18778;SDS011;9518;51.720;14.384;2022-07-19T13:46:18;1999.90;;;999.90;;
18778;SDS011;9518;51.720;14.384;2022-07-19T13:48:45;1999.90;;;999.90;;
18778;SDS011;9518;51.720;14.384;2022-07-19T13:51:12;1999.90;;;999.90;;
18778;SDS011;9518;51.720;14.384;2022-07-19T13:53:39;1999.90;;;999.90;;
18778;SDS011;9518;51.720;14.384;2022-07-19T13:56:06;1999.90;;;999.90;;
18778;SDS011;9518;51.720;14.384;2022-07-19T13:58:34;1999.90;;;999.90;;
18778;SDS011;9518;51.720;14.384;2022-07-19T14:01:01;1999.90;;;999.90;;
18778;SDS011;9518;51.720;14.384;2022-07-19T14:03:28;1999.90;;;999.90;;
18778;SDS011;9518;51.720;14.384;2022-07-19T14:05:55;1999.90;;;999.90;;
18778;SDS011;9518;51.720;14.384;2022-07-19T14:08:22;1999.90;;;999.90;;